createdAt,value
2022-10-05T00:00:04.374Z,9.23
2022-10-05T00:02:32.105Z,9.20
2022-10-05T00:04:59.359Z,9.22
2022-10-05T00:07:26.020Z,9.16
2022-10-05T00:10:00.037Z,9.20
2022-10-05T00:12:29.876Z,9.15
2022-10-05T00:15:00.577Z,9.17
2022-10-05T00:17:30.258Z,9.15
2022-10-05T00:19:57.044Z,9.05
2022-10-05T00:22:34.045Z,9.10
2022-10-05T00:25:03.063Z,9.13
2022-10-05T00:27:36.718Z,9.06
2022-10-05T00:30:24.171Z,9.08
2022-10-05T00:32:53.897Z,9.10
2022-10-05T00:35:23.996Z,9.10
2022-10-05T00:37:55.584Z,9.03
2022-10-05T00:40:40.328Z,9.03
2022-10-05T00:43:39.163Z,9.04
2022-10-05T00:46:13.353Z,8.99
2022-10-05T00:48:57.251Z,8.98
2022-10-05T00:51:36.578Z,8.95
2022-10-05T00:54:17.373Z,8.93
2022-10-05T00:57:04.814Z,8.89
2022-10-05T00:59:40.561Z,8.90
2022-10-05T01:02:15.469Z,8.86
2022-10-05T01:04:50.405Z,8.82
2022-10-05T01:07:38.569Z,8.77
2022-10-05T01:10:23.592Z,8.76
2022-10-05T01:13:08.198Z,8.77
2022-10-05T01:15:47.077Z,8.68
2022-10-05T01:18:16.629Z,8.68
2022-10-05T01:20:48.473Z,8.65
2022-10-05T01:23:58.118Z,8.65
2022-10-05T01:26:40.207Z,8.66
2022-10-05T01:29:15.958Z,8.63
2022-10-05T01:31:57.725Z,8.59
2022-10-05T01:34:48.269Z,8.57
2022-10-05T01:37:34.714Z,8.54
2022-10-05T01:40:09.177Z,8.52
2022-10-05T01:42:59.760Z,8.50
2022-10-05T01:45:46.605Z,8.46
2022-10-05T01:48:23.509Z,8.48
2022-10-05T01:51:11.176Z,8.44
2022-10-05T01:53:57.075Z,8.51
2022-10-05T01:57:00.831Z,8.47
2022-10-05T01:59:49.126Z,8.46
2022-10-05T02:02:22.110Z,8.37
2022-10-05T02:05:02.382Z,8.47
2022-10-05T02:07:54.282Z,8.43
2022-10-05T02:10:28.932Z,8.49
2022-10-05T02:13:17.232Z,8.52
2022-10-05T02:15:58.739Z,8.53
2022-10-05T02:18:37.995Z,8.51
2022-10-05T02:21:05.590Z,8.58
2022-10-05T02:23:35.923Z,8.62
2022-10-05T02:26:04.641Z,8.64
2022-10-05T02:28:55.904Z,8.60
2022-10-05T02:31:57.525Z,8.68
2022-10-05T02:34:52.234Z,8.74
2022-10-05T02:37:43.484Z,8.75
2022-10-05T02:40:49.641Z,8.77
2022-10-05T02:43:19.086Z,8.79
2022-10-05T02:46:22.834Z,8.77
2022-10-05T02:49:13.745Z,8.79
2022-10-05T02:52:05.712Z,8.79
2022-10-05T02:54:53.657Z,8.80
2022-10-05T02:57:34.445Z,8.83
2022-10-05T03:00:15.269Z,8.82
2022-10-05T03:02:48.462Z,8.82
2022-10-05T03:05:30.866Z,8.82
2022-10-05T03:08:09.181Z,8.83
2022-10-05T03:10:56.835Z,8.82
2022-10-05T03:13:48.760Z,8.81
2022-10-05T03:16:37.230Z,8.83
2022-10-05T03:19:41.157Z,8.85
2022-10-05T03:22:55.945Z,8.85
2022-10-05T03:25:47.508Z,8.87
2022-10-05T03:28:20.435Z,8.88
2022-10-05T03:30:59.582Z,8.85
2022-10-05T03:33:31.033Z,8.83
2022-10-05T03:36:06.336Z,8.83
2022-10-05T03:38:50.311Z,8.85
2022-10-05T03:41:34.837Z,8.84
2022-10-05T03:44:30.946Z,8.83
2022-10-05T03:47:34.662Z,8.82
2022-10-05T03:50:34.047Z,8.81
2022-10-05T03:53:06.194Z,8.79
2022-10-05T03:55:48.078Z,8.80
2022-10-05T03:58:28.265Z,8.78
2022-10-05T04:01:00.679Z,8.79
2022-10-05T04:03:36.497Z,8.78
2022-10-05T04:06:22.501Z,8.76
2022-10-05T04:09:00.547Z,8.85
2022-10-05T04:11:34.334Z,8.83
2022-10-05T04:14:15.120Z,8.83
2022-10-05T04:16:48.044Z,8.87
2022-10-05T04:19:24.631Z,8.86
2022-10-05T04:22:15.834Z,8.78
2022-10-05T04:25:17.498Z,8.83
2022-10-05T04:28:04.135Z,8.84
2022-10-05T04:30:33.703Z,8.84
2022-10-05T04:33:00.704Z,8.86
2022-10-05T04:36:04.645Z,8.89
2022-10-05T04:38:52.629Z,8.93
2022-10-05T04:41:28.374Z,8.93
2022-10-05T04:44:13.658Z,8.93
2022-10-05T04:46:43.265Z,8.96
2022-10-05T04:49:28.123Z,8.98
2022-10-05T04:52:19.164Z,8.99
2022-10-05T04:54:51.577Z,9.02
2022-10-05T04:57:25.576Z,8.95
2022-10-05T04:59:54.859Z,9.00
2022-10-05T05:02:36.711Z,9.03
2022-10-05T05:05:35.386Z,9.05
2022-10-05T05:08:26.015Z,9.03
2022-10-05T05:11:24.514Z,9.05
2022-10-05T05:14:16.107Z,9.07
2022-10-05T05:16:56.650Z,9.09
2022-10-05T05:19:37.769Z,9.13
2022-10-05T05:22:07.466Z,9.14
2022-10-05T05:24:52.444Z,9.16
2022-10-05T05:27:58.319Z,9.18
2022-10-05T05:30:33.750Z,9.18
2022-10-05T05:33:18.281Z,9.25
2022-10-05T05:36:03.636Z,9.32
2022-10-05T05:39:11.577Z,9.29
2022-10-05T05:41:43.327Z,9.33
2022-10-05T05:44:18.728Z,9.38
2022-10-05T05:47:03.965Z,9.44
2022-10-05T05:49:53.201Z,9.51
2022-10-05T05:52:30.462Z,9.53
2022-10-05T05:55:01.992Z,9.51
2022-10-05T05:57:39.959Z,9.55
2022-10-05T06:00:35.784Z,9.56
2022-10-05T06:03:11.428Z,9.51
2022-10-05T06:05:46.937Z,9.55
2022-10-05T06:08:22.497Z,9.60
2022-10-05T06:11:21.659Z,9.61
2022-10-05T06:13:49.274Z,9.69
2022-10-05T06:16:25.642Z,9.72
2022-10-05T06:19:27.135Z,9.72
2022-10-05T06:22:02.660Z,9.76
2022-10-05T06:24:29.156Z,9.80
2022-10-05T06:27:20.285Z,9.84
2022-10-05T06:29:49.784Z,9.86
2022-10-05T06:32:24.585Z,9.88
2022-10-05T06:34:58.285Z,9.94
2022-10-05T06:37:34.056Z,9.97
2022-10-05T06:40:09.395Z,9.99
2022-10-05T06:43:14.904Z,10.01
2022-10-05T06:45:56.897Z,10.09
2022-10-05T06:48:47.630Z,10.08
2022-10-05T06:51:29.181Z,10.12
2022-10-05T06:54:07.762Z,10.14
2022-10-05T06:56:49.803Z,10.12
2022-10-05T06:59:31.611Z,10.25
2022-10-05T07:02:24.530Z,10.27
2022-10-05T07:05:12.543Z,10.36
2022-10-05T07:07:47.512Z,10.41
2022-10-05T07:10:22.484Z,10.42
2022-10-05T07:13:13.587Z,10.48
2022-10-05T07:15:42.645Z,10.51
2022-10-05T07:18:09.112Z,10.54
2022-10-05T07:20:58.831Z,10.60
2022-10-05T07:23:28.422Z,10.61
2022-10-05T07:26:26.776Z,10.67
2022-10-05T07:29:18.201Z,10.79
2022-10-05T07:32:14.446Z,10.82
2022-10-05T07:35:38.358Z,10.81
2022-10-05T07:38:18.627Z,10.78
2022-10-05T07:40:59.328Z,10.76
2022-10-05T07:44:01.976Z,10.81
2022-10-05T07:46:29.484Z,10.83
2022-10-05T07:49:05.576Z,10.87
2022-10-05T07:51:41.255Z,10.85
2022-10-05T07:54:17.031Z,10.89
2022-10-05T07:56:52.381Z,10.89
2022-10-05T07:59:39.419Z,10.82
2022-10-05T08:02:13.117Z,10.79
2022-10-05T08:05:12.039Z,10.81
2022-10-05T08:07:40.218Z,10.73
2022-10-05T08:10:27.682Z,10.75
2022-10-05T08:13:21.944Z,10.78
2022-10-05T08:15:53.895Z,10.81
2022-10-05T08:18:57.168Z,10.83
2022-10-05T08:21:31.237Z,10.87
2022-10-05T08:24:25.479Z,10.91
2022-10-05T08:27:02.065Z,10.93
2022-10-05T08:29:35.277Z,11.08
2022-10-05T08:32:05.523Z,11.08
2022-10-05T08:34:43.942Z,11.15
2022-10-05T08:37:32.252Z,11.20
2022-10-05T08:40:30.989Z,11.26
2022-10-05T08:42:57.515Z,11.28
2022-10-05T08:46:04.629Z,11.25
2022-10-05T08:48:42.469Z,11.35
2022-10-05T08:51:26.179Z,11.39
2022-10-05T08:54:23.929Z,11.44
2022-10-05T08:57:21.372Z,11.48
2022-10-05T09:00:17.423Z,11.46
2022-10-05T09:03:14.613Z,11.49
2022-10-05T09:05:59.783Z,11.48
2022-10-05T09:08:51.532Z,11.52
2022-10-05T09:11:18.067Z,11.59
2022-10-05T09:14:21.060Z,11.65
2022-10-05T09:17:07.016Z,11.74
2022-10-05T09:20:17.948Z,11.79
2022-10-05T09:22:59.563Z,11.86
2022-10-05T09:25:30.895Z,11.86
2022-10-05T09:28:17.917Z,11.78
2022-10-05T09:31:08.893Z,11.91
2022-10-05T09:34:01.378Z,11.93
2022-10-05T09:36:47.842Z,11.91
2022-10-05T09:39:28.765Z,11.87
2022-10-05T09:42:45.756Z,11.91
2022-10-05T09:45:44.031Z,11.99
2022-10-05T09:48:36.149Z,12.12
2022-10-05T09:51:32.764Z,12.24
2022-10-05T09:54:05.299Z,12.41
2022-10-05T09:56:53.120Z,12.47
2022-10-05T09:59:47.067Z,12.57
2022-10-05T10:02:44.277Z,12.63
2022-10-05T10:05:22.801Z,12.65
2022-10-05T10:08:01.272Z,12.75
2022-10-05T10:10:40.171Z,12.90
2022-10-05T10:13:39.188Z,13.05
2022-10-05T10:16:33.023Z,13.13
2022-10-05T10:19:30.610Z,13.28
2022-10-05T10:22:05.483Z,13.37
2022-10-05T10:24:35.440Z,13.54
2022-10-05T10:27:12.682Z,13.37
2022-10-05T10:30:03.487Z,13.46
2022-10-05T10:32:41.833Z,13.52
2022-10-05T10:35:35.798Z,13.60
2022-10-05T10:38:31.018Z,13.57
2022-10-05T10:41:16.436Z,13.57
2022-10-05T10:44:02.229Z,13.62
2022-10-05T10:46:57.287Z,13.54
2022-10-05T10:49:51.872Z,13.49
2022-10-05T10:52:41.654Z,13.54
2022-10-05T10:55:21.376Z,13.53
2022-10-05T10:57:48.008Z,13.51
2022-10-05T11:00:39.235Z,13.56
2022-10-05T11:03:35.053Z,13.53
2022-10-05T11:06:33.054Z,13.46
2022-10-05T11:09:33.174Z,13.36
2022-10-05T11:12:22.709Z,13.34
2022-10-05T11:15:12.188Z,13.33
2022-10-05T11:17:59.683Z,13.31
2022-10-05T11:20:50.668Z,13.29
2022-10-05T11:23:23.119Z,13.34
2022-10-05T11:25:55.643Z,13.32
2022-10-05T11:28:44.105Z,13.26
2022-10-05T11:31:48.625Z,13.26
2022-10-05T11:34:38.211Z,13.26
2022-10-05T11:37:26.218Z,13.27
2022-10-05T11:40:14.346Z,13.28
2022-10-05T11:42:44.168Z,13.27
2022-10-05T11:45:21.979Z,13.28
2022-10-05T11:48:16.289Z,13.31
2022-10-05T11:50:51.634Z,13.32
2022-10-05T11:53:57.634Z,13.30
2022-10-05T11:56:33.775Z,13.27
2022-10-05T11:59:21.768Z,13.35
2022-10-05T12:01:51.122Z,13.32
2022-10-05T12:04:32.673Z,13.20
2022-10-05T12:07:15.464Z,13.20
2022-10-05T12:10:16.879Z,13.13
2022-10-05T12:12:45.217Z,13.06
2022-10-05T12:15:28.618Z,13.02
2022-10-05T12:18:24.444Z,12.99
2022-10-05T12:21:13.284Z,12.97
2022-10-05T12:23:46.682Z,12.97
2022-10-05T12:26:24.538Z,12.88
2022-10-05T12:29:01.185Z,12.94
2022-10-05T12:31:36.423Z,12.97
2022-10-05T12:34:14.746Z,13.00
2022-10-05T12:37:08.529Z,13.06
2022-10-05T12:39:40.812Z,13.09
2022-10-05T12:42:16.902Z,13.11
2022-10-05T12:45:09.529Z,13.12
2022-10-05T12:48:14.093Z,13.18
2022-10-05T12:51:15.132Z,13.26
2022-10-05T12:54:10.554Z,13.33
2022-10-05T12:56:49.968Z,13.40
2022-10-05T12:59:28.803Z,13.44
2022-10-05T13:02:19.603Z,13.45
2022-10-05T13:04:49.179Z,13.46
2022-10-05T13:07:30.433Z,13.45
2022-10-05T13:10:18.680Z,13.42
2022-10-05T13:12:51.567Z,13.42
2022-10-05T13:15:37.685Z,13.40
2022-10-05T13:18:16.030Z,13.41
2022-10-05T13:20:51.681Z,13.44
2022-10-05T13:23:36.856Z,13.42
2022-10-05T13:26:14.793Z,13.38
2022-10-05T13:28:56.863Z,13.41
2022-10-05T13:31:39.034Z,13.38
2022-10-05T13:34:21.239Z,13.35
2022-10-05T13:36:59.496Z,13.31
2022-10-05T13:40:04.719Z,13.27
2022-10-05T13:42:42.134Z,13.22
2022-10-05T13:45:20.318Z,13.19
2022-10-05T13:48:05.391Z,13.16
2022-10-05T13:51:01.939Z,13.13
2022-10-05T13:53:44.217Z,13.14
2022-10-05T13:56:36.769Z,13.10
2022-10-05T13:59:15.744Z,13.08
2022-10-05T14:01:59.322Z,13.05
2022-10-05T14:04:42.263Z,13.09
2022-10-05T14:07:31.550Z,13.05
2022-10-05T14:10:02.085Z,13.10
2022-10-05T14:12:28.926Z,13.10
2022-10-05T14:14:57.718Z,13.06
2022-10-05T14:17:33.443Z,13.13
2022-10-05T14:20:00.809Z,13.13
2022-10-05T14:22:27.513Z,13.10
2022-10-05T14:25:07.955Z,13.08
2022-10-05T14:27:48.343Z,13.12
2022-10-05T14:30:14.877Z,13.12
2022-10-05T14:32:56.237Z,13.10
2022-10-05T14:35:25.991Z,13.08
2022-10-05T14:37:58.345Z,13.10
2022-10-05T14:40:27.776Z,13.11
2022-10-05T14:42:54.915Z,13.05
2022-10-05T14:45:24.993Z,13.08
2022-10-05T14:48:06.119Z,13.06
2022-10-05T14:50:32.817Z,12.98
2022-10-05T14:53:11.449Z,13.01
2022-10-05T14:55:50.414Z,12.99
2022-10-05T14:58:41.465Z,12.94
2022-10-05T15:01:26.390Z,12.93
2022-10-05T15:04:14.652Z,12.90
2022-10-05T15:07:11.221Z,12.87
2022-10-05T15:09:47.248Z,12.80
2022-10-05T15:12:22.378Z,12.75
2022-10-05T15:14:51.576Z,12.64
2022-10-05T15:17:26.211Z,12.71
2022-10-05T15:20:05.190Z,12.71
2022-10-05T15:22:48.815Z,12.71
2022-10-05T15:25:23.126Z,12.64
2022-10-05T15:28:05.901Z,12.60
2022-10-05T15:30:38.165Z,12.46
2022-10-05T15:33:14.397Z,12.45
2022-10-05T15:36:04.322Z,12.40
2022-10-05T15:38:41.906Z,12.34
2022-10-05T15:41:16.642Z,12.34
2022-10-05T15:43:50.440Z,12.34
2022-10-05T15:46:19.822Z,12.34
2022-10-05T15:49:21.248Z,12.32
2022-10-05T15:52:05.672Z,12.32
2022-10-05T15:54:43.950Z,12.30
2022-10-05T15:57:52.146Z,12.21
2022-10-05T16:00:22.074Z,12.25
2022-10-05T16:03:00.557Z,12.28
2022-10-05T16:06:08.846Z,12.28
2022-10-05T16:09:07.073Z,12.25
2022-10-05T16:12:01.507Z,12.24
2022-10-05T16:14:54.577Z,12.18
2022-10-05T16:17:47.968Z,12.17
2022-10-05T16:20:20.827Z,12.19
2022-10-05T16:22:59.714Z,12.17
2022-10-05T16:25:34.237Z,12.14
2022-10-05T16:28:16.741Z,12.12
2022-10-05T16:30:58.752Z,12.02
2022-10-05T16:33:54.276Z,12.05
2022-10-05T16:36:48.109Z,12.02
2022-10-05T16:39:23.455Z,11.99
2022-10-05T16:42:04.065Z,12.00
2022-10-05T16:44:33.178Z,11.98
2022-10-05T16:47:08.742Z,12.00
2022-10-05T16:49:56.780Z,12.00
2022-10-05T16:52:26.495Z,11.94
2022-10-05T16:54:57.825Z,11.96
2022-10-05T16:57:29.783Z,11.97
2022-10-05T16:59:56.471Z,11.93
2022-10-05T17:02:41.548Z,11.91
2022-10-05T17:05:31.038Z,11.90
2022-10-05T17:08:34.125Z,11.86
2022-10-05T17:11:17.041Z,11.79
2022-10-05T17:14:02.420Z,11.81
2022-10-05T17:16:54.948Z,11.82
2022-10-05T17:19:37.279Z,11.80
2022-10-05T17:22:20.401Z,11.79
2022-10-05T17:25:18.391Z,11.77
2022-10-05T17:28:15.012Z,11.79
2022-10-05T17:31:09.534Z,11.80
2022-10-05T17:34:10.951Z,11.77
2022-10-05T17:36:42.888Z,11.75
2022-10-05T17:39:18.122Z,11.69
2022-10-05T17:41:45.520Z,11.67
2022-10-05T17:44:19.435Z,11.68
2022-10-05T17:46:57.754Z,11.67
2022-10-05T17:50:08.466Z,11.64
2022-10-05T17:52:56.798Z,11.56
2022-10-05T17:56:03.488Z,11.60
2022-10-05T17:58:30.034Z,11.61
2022-10-05T18:01:00.672Z,11.63
2022-10-05T18:03:45.189Z,11.62
2022-10-05T18:06:30.975Z,11.58
2022-10-05T18:09:21.057Z,11.57
2022-10-05T18:12:24.284Z,11.54
2022-10-05T18:14:50.780Z,11.53
2022-10-05T18:17:45.292Z,11.48
2022-10-05T18:20:21.925Z,11.43
2022-10-05T18:22:51.015Z,11.42
2022-10-05T18:25:33.882Z,11.42
2022-10-05T18:28:09.218Z,11.43
2022-10-05T18:31:01.216Z,11.42
2022-10-05T18:33:52.700Z,11.39
2022-10-05T18:36:37.950Z,11.40
2022-10-05T18:39:26.757Z,11.39
2022-10-05T18:42:32.375Z,11.37
2022-10-05T18:45:21.534Z,11.32
2022-10-05T18:48:00.155Z,11.28
2022-10-05T18:50:34.601Z,11.26
2022-10-05T18:53:09.209Z,11.25
2022-10-05T18:55:41.953Z,11.24
2022-10-05T18:58:17.800Z,11.21
2022-10-05T19:00:48.305Z,11.24
2022-10-05T19:03:39.887Z,11.21
2022-10-05T19:06:24.934Z,11.16
2022-10-05T19:09:17.253Z,11.18
2022-10-05T19:12:00.629Z,11.17
2022-10-05T19:14:33.193Z,11.18
2022-10-05T19:17:05.769Z,11.16
2022-10-05T19:19:38.346Z,11.15
2022-10-05T19:22:07.994Z,11.17
2022-10-05T19:24:43.492Z,11.16
2022-10-05T19:27:50.749Z,11.19
2022-10-05T19:30:25.245Z,11.19
2022-10-05T19:32:58.015Z,11.15
2022-10-05T19:35:45.878Z,11.12
2022-10-05T19:38:24.239Z,11.16
2022-10-05T19:41:16.253Z,11.16
2022-10-05T19:44:01.087Z,11.16
2022-10-05T19:46:46.484Z,11.14
2022-10-05T19:49:35.869Z,11.14
2022-10-05T19:52:08.723Z,11.12
2022-10-05T19:54:35.271Z,11.14
2022-10-05T19:57:16.968Z,11.15
2022-10-05T19:59:47.840Z,11.14
2022-10-05T20:02:17.039Z,11.12
2022-10-05T20:04:46.905Z,11.18
2022-10-05T20:07:21.619Z,11.20
2022-10-05T20:09:50.203Z,11.15
2022-10-05T20:12:16.727Z,11.11
2022-10-05T20:15:01.945Z,11.09
2022-10-05T20:17:48.749Z,11.13
2022-10-05T20:20:47.249Z,11.09
2022-10-05T20:23:30.373Z,11.09
2022-10-05T20:26:29.302Z,11.09
2022-10-05T20:28:55.850Z,11.08
2022-10-05T20:31:22.520Z,11.08
2022-10-05T20:33:49.150Z,11.07
2022-10-05T20:36:15.712Z,11.08
2022-10-05T20:38:42.736Z,11.06
2022-10-05T20:41:09.463Z,11.07
2022-10-05T20:43:38.935Z,11.04
2022-10-05T20:46:06.315Z,11.02
2022-10-05T20:48:33.054Z,11.08
2022-10-05T20:51:00.246Z,11.02
2022-10-05T20:53:26.772Z,11.06
2022-10-05T20:55:53.352Z,11.05
2022-10-05T20:58:19.888Z,10.99
2022-10-05T21:01:05.135Z,10.99
2022-10-05T21:03:31.744Z,11.00
2022-10-05T21:05:58.519Z,10.97
2022-10-05T21:08:25.389Z,10.94
2022-10-05T21:10:52.177Z,10.93
2022-10-05T21:13:18.711Z,10.96
2022-10-05T21:15:45.322Z,11.00
2022-10-05T21:18:11.860Z,10.97
2022-10-05T21:20:38.466Z,10.98
2022-10-05T21:23:05.027Z,10.95
2022-10-05T21:25:31.584Z,10.97
2022-10-05T21:27:58.230Z,10.93
2022-10-05T21:30:24.943Z,10.95
2022-10-05T21:32:51.514Z,10.90
2022-10-05T21:35:18.134Z,10.91
2022-10-05T21:37:44.695Z,10.92
2022-10-05T21:40:11.424Z,10.88
2022-10-05T21:42:38.120Z,10.83
2022-10-05T21:45:05.155Z,10.90
2022-10-05T21:47:31.846Z,10.90
2022-10-05T21:49:59.861Z,10.86
2022-10-05T21:52:26.573Z,10.87
2022-10-05T21:54:53.196Z,10.88
2022-10-05T21:57:19.743Z,10.86
2022-10-05T21:59:47.093Z,10.86
2022-10-05T22:02:13.650Z,10.80
2022-10-05T22:04:40.231Z,10.84
2022-10-05T22:07:18.459Z,10.86
2022-10-05T22:09:47.726Z,10.90
2022-10-05T22:12:14.685Z,10.84
2022-10-05T22:14:41.572Z,10.92
2022-10-05T22:17:14.875Z,10.93
2022-10-05T22:19:41.609Z,10.95
2022-10-05T22:22:11.824Z,10.91
2022-10-05T22:24:38.670Z,10.83
2022-10-05T22:27:05.423Z,10.89
2022-10-05T22:29:31.984Z,10.77
2022-10-05T22:31:58.586Z,10.75
2022-10-05T22:34:25.470Z,10.75
2022-10-05T22:36:52.066Z,10.79
2022-10-05T22:39:18.756Z,10.74
2022-10-05T22:41:45.368Z,10.77
2022-10-05T22:44:11.948Z,10.79
2022-10-05T22:46:38.662Z,10.78
2022-10-05T22:49:05.300Z,10.81
2022-10-05T22:51:31.842Z,10.82
2022-10-05T22:53:58.374Z,10.81
2022-10-05T22:56:25.044Z,10.82
2022-10-05T22:58:51.608Z,10.78
2022-10-05T23:01:19.482Z,10.82
2022-10-05T23:03:46.234Z,10.82
2022-10-05T23:06:15.964Z,10.82
2022-10-05T23:08:43.870Z,10.84
2022-10-05T23:11:16.849Z,10.84
2022-10-05T23:13:44.051Z,10.86
2022-10-05T23:16:12.116Z,10.85
2022-10-05T23:18:39.507Z,10.78
2022-10-05T23:21:08.367Z,10.79
2022-10-05T23:23:40.809Z,10.71
2022-10-05T23:26:08.694Z,10.75
2022-10-05T23:28:35.502Z,10.73
2022-10-05T23:31:05.357Z,10.76
2022-10-05T23:33:32.228Z,10.69
2022-10-05T23:36:00.861Z,10.68
2022-10-05T23:38:27.829Z,10.62
2022-10-05T23:40:54.798Z,10.53
2022-10-05T23:43:21.908Z,10.60
2022-10-05T23:45:48.924Z,10.58
2022-10-05T23:48:15.513Z,10.54
2022-10-05T23:50:45.402Z,10.50
2022-10-05T23:53:12.296Z,10.46
2022-10-05T23:55:38.887Z,10.45
2022-10-05T23:58:05.464Z,10.44
